createdAt,value
2018-04-08T00:01:13.292Z,15.13
2018-04-08T00:05:16.055Z,13.90
2018-04-08T00:09:18.913Z,14.33
2018-04-08T00:13:22.915Z,14.60
2018-04-08T00:17:25.654Z,14.23
2018-04-08T00:21:29.211Z,14.60
2018-04-08T00:25:32.001Z,15.70
2018-04-08T00:29:34.796Z,14.20
2018-04-08T00:33:37.615Z,15.13
2018-04-08T00:37:41.369Z,15.50
2018-04-08T00:41:44.105Z,14.73
2018-04-08T00:45:46.951Z,14.20
2018-04-08T00:49:49.828Z,15.63
2018-04-08T00:54:04.645Z,16.07
2018-04-08T00:58:08.211Z,14.10
2018-04-08T01:02:19.152Z,15.27
2018-04-08T01:06:21.902Z,14.90
2018-04-08T01:10:24.788Z,18.13
2018-04-08T01:14:27.552Z,17.87
2018-04-08T01:18:30.596Z,14.27
2018-04-08T01:22:33.380Z,14.80
2018-04-08T01:26:37.169Z,15.83
2018-04-08T01:30:39.928Z,16.47
2018-04-08T01:34:42.719Z,16.60
2018-04-08T01:38:45.505Z,18.23
2018-04-08T01:42:48.218Z,16.40
2018-04-08T01:46:53.172Z,16.90
2018-04-08T01:50:55.896Z,17.93
2018-04-08T01:54:58.753Z,18.07
2018-04-08T01:59:01.631Z,18.00
2018-04-08T02:03:04.371Z,18.67
2018-04-08T02:07:07.198Z,17.70
2018-04-08T02:11:09.948Z,18.17
2018-04-08T02:15:12.778Z,17.63
2018-04-08T02:19:16.250Z,20.43
2018-04-08T02:23:19.790Z,17.53
2018-04-08T02:27:23.351Z,20.73
2018-04-08T02:31:26.572Z,19.77
2018-04-08T02:35:29.675Z,20.00
2018-04-08T02:39:33.293Z,22.57
2018-04-08T02:43:35.996Z,24.27
2018-04-08T02:47:38.898Z,20.60
2018-04-08T02:51:41.648Z,19.43
2018-04-08T02:55:44.445Z,23.10
2018-04-08T02:59:47.938Z,22.90
2018-04-08T03:03:50.779Z,25.10
2018-04-08T03:07:53.513Z,22.60
2018-04-08T03:11:56.285Z,21.17
2018-04-08T03:15:59.265Z,20.90
2018-04-08T03:20:01.995Z,21.40
2018-04-08T03:24:04.788Z,22.13
2018-04-08T03:28:07.636Z,21.27
2018-04-08T03:32:11.116Z,21.73
2018-04-08T03:36:18.702Z,23.90
2018-04-08T03:40:21.498Z,23.00
2018-04-08T03:44:29.085Z,23.27
2018-04-08T03:48:31.932Z,22.80
2018-04-08T03:52:34.689Z,22.50
2018-04-08T03:56:43.827Z,22.40
2018-04-08T04:00:46.649Z,20.57
2018-04-08T04:04:49.569Z,23.00
2018-04-08T04:08:52.415Z,23.97
2018-04-08T04:12:55.224Z,25.00
2018-04-08T04:17:02.134Z,24.67
2018-04-08T04:21:20.066Z,26.20
2018-04-08T04:29:58.399Z,27.73
2018-04-08T04:34:01.152Z,25.60
2018-04-08T04:38:03.939Z,26.03
2018-04-08T04:42:06.671Z,27.23
2018-04-08T04:46:12.734Z,26.70
2018-04-08T04:50:15.687Z,28.00
2018-04-08T04:54:18.457Z,26.37
2018-04-08T04:58:21.220Z,25.87
2018-04-08T05:02:27.355Z,27.07
2018-04-08T05:06:31.921Z,29.47
2018-04-08T05:10:34.716Z,28.63
2018-04-08T05:14:37.485Z,28.20
2018-04-08T05:18:41.065Z,28.10
2018-04-08T05:22:43.923Z,24.87
2018-04-08T05:26:48.311Z,25.63
2018-04-08T05:30:51.103Z,23.60
2018-04-08T05:34:57.381Z,23.30
2018-04-08T05:39:00.123Z,26.27
2018-04-08T05:43:02.920Z,25.17
2018-04-08T05:47:06.504Z,26.90
2018-04-08T05:51:09.388Z,26.33
2018-04-08T05:55:12.168Z,24.23
2018-04-08T05:59:15.090Z,25.07
2018-04-08T06:03:17.837Z,28.00
2018-04-08T06:07:20.587Z,24.30
2018-04-08T06:11:23.387Z,25.93
2018-04-08T06:15:26.379Z,22.20
2018-04-08T06:19:30.011Z,26.63
2018-04-08T06:23:34.832Z,22.93
2018-04-08T06:27:37.797Z,23.00
2018-04-08T06:31:40.595Z,20.90
2018-04-08T06:35:43.437Z,25.60
2018-04-08T06:39:52.041Z,22.40
2018-04-08T06:43:54.825Z,23.97
2018-04-08T06:47:57.770Z,22.83
2018-04-08T06:52:02.286Z,24.40
2018-04-08T06:56:05.043Z,23.83
2018-04-08T07:00:08.637Z,24.20
2018-04-08T07:04:11.449Z,23.40
2018-04-08T07:08:14.467Z,24.23
2018-04-08T07:12:17.290Z,22.93
2018-04-08T07:16:20.037Z,24.10
2018-04-08T07:20:22.757Z,24.03
2018-04-08T07:24:25.682Z,22.57
2018-04-08T07:28:28.506Z,23.33
2018-04-08T07:32:31.223Z,24.83
2018-04-08T07:36:35.970Z,24.37
2018-04-08T07:40:38.715Z,25.10
2018-04-08T07:44:41.795Z,23.20
2018-04-08T07:48:46.934Z,24.47
2018-04-08T07:52:50.097Z,24.77
2018-04-08T07:56:52.802Z,23.60
2018-04-08T08:00:55.544Z,26.70
2018-04-08T08:04:58.397Z,23.63
2018-04-08T08:09:01.113Z,24.77
2018-04-08T08:13:05.691Z,24.03
2018-04-08T08:17:08.436Z,25.20
2018-04-08T08:21:11.385Z,24.20
2018-04-08T08:25:14.152Z,25.97
2018-04-08T08:29:17.684Z,25.07
2018-04-08T08:33:20.510Z,22.67
2018-04-08T08:37:23.246Z,23.57
2018-04-08T08:41:26.011Z,23.40
2018-04-08T08:45:28.745Z,25.23
2018-04-08T08:49:31.584Z,23.10
2018-04-08T08:53:34.615Z,24.93
2018-04-08T08:57:37.346Z,25.10
2018-04-08T09:01:40.872Z,24.00
2018-04-08T09:05:44.551Z,28.10
2018-04-08T09:09:47.410Z,23.70
2018-04-08T09:13:50.352Z,25.70
2018-04-08T09:17:53.152Z,24.33
2018-04-08T09:22:01.585Z,22.37
2018-04-08T09:26:05.860Z,25.60
2018-04-08T09:30:08.838Z,25.80
2018-04-08T09:34:12.611Z,25.20
2018-04-08T09:38:15.468Z,25.50
2018-04-08T09:42:20.141Z,25.20
2018-04-08T09:46:23.002Z,23.90
2018-04-08T09:50:25.765Z,26.07
2018-04-08T09:54:28.626Z,27.80
2018-04-08T09:58:33.395Z,27.27
2018-04-08T10:02:38.158Z,25.10
2018-04-08T10:06:40.997Z,27.40
2018-04-08T10:10:43.750Z,29.10
2018-04-08T10:14:46.469Z,27.10
2018-04-08T10:18:50.141Z,25.90
2018-04-08T10:22:53.975Z,24.03
2018-04-08T10:26:56.707Z,26.43
2018-04-08T10:31:00.223Z,24.03
2018-04-08T10:35:03.780Z,25.67
2018-04-08T10:39:06.501Z,21.77
2018-04-08T10:43:09.214Z,23.13
2018-04-08T10:47:13.864Z,23.40
2018-04-08T10:51:17.505Z,22.73
2018-04-08T10:55:20.335Z,22.97
2018-04-08T10:59:23.067Z,21.87
2018-04-08T11:03:25.867Z,22.70
2018-04-08T11:07:28.594Z,21.97
2018-04-08T11:11:31.416Z,21.97
2018-04-08T11:15:34.222Z,19.47
2018-04-08T11:19:37.197Z,20.80
2018-04-08T11:23:40.231Z,16.93
2018-04-08T11:27:43.302Z,17.75
2018-04-08T11:31:46.046Z,18.40
2018-04-08T11:35:50.877Z,18.17
2018-04-08T11:39:53.679Z,16.70
2018-04-08T11:43:56.430Z,18.77
2018-04-08T11:47:59.935Z,18.00
2018-04-08T11:52:02.726Z,21.40
2018-04-08T11:56:06.225Z,18.07
2018-04-08T12:00:10.136Z,18.57
2018-04-08T12:04:12.950Z,16.90
2018-04-08T12:08:17.725Z,18.10
2018-04-08T12:12:20.463Z,19.30
2018-04-08T12:16:24.196Z,20.07
2018-04-08T12:20:26.931Z,19.23
2018-04-08T12:24:29.754Z,17.77
2018-04-08T12:28:32.664Z,17.73
2018-04-08T12:32:35.456Z,16.90
2018-04-08T12:36:38.223Z,15.60
2018-04-08T12:40:41.851Z,17.07
2018-04-08T12:44:44.604Z,17.80
2018-04-08T12:48:47.399Z,17.20
2018-04-08T12:52:50.145Z,17.03
2018-04-08T12:56:52.923Z,13.03
2018-04-08T13:00:56.457Z,16.00
2018-04-08T13:04:59.345Z,16.23
2018-04-08T13:09:02.112Z,15.00
2018-04-08T13:13:06.053Z,13.57
2018-04-08T13:17:08.836Z,12.70
2018-04-08T13:21:12.624Z,13.40
2018-04-08T13:25:15.365Z,13.10
2018-04-08T13:29:18.891Z,13.03
2018-04-08T13:33:23.741Z,12.27
2018-04-08T13:37:26.554Z,11.63
2018-04-08T13:41:36.099Z,10.37
2018-04-08T13:45:38.819Z,10.83
2018-04-08T13:49:42.562Z,10.32
2018-04-08T13:53:45.338Z,9.60
2018-04-08T13:57:48.055Z,10.27
2018-04-08T14:01:52.853Z,9.93
2018-04-08T14:05:55.741Z,8.70
2018-04-08T14:09:58.617Z,8.10
2018-04-08T14:14:02.190Z,8.37
2018-04-08T14:18:05.165Z,7.93
2018-04-08T14:22:07.873Z,7.00
2018-04-08T14:26:10.857Z,7.40
2018-04-08T14:30:13.810Z,6.57
2018-04-08T14:34:16.625Z,6.50
2018-04-08T14:38:19.411Z,7.07
2018-04-08T14:42:22.323Z,6.50
2018-04-08T14:46:25.229Z,6.57
2018-04-08T14:50:29.042Z,5.70
2018-04-08T14:54:31.823Z,6.03
2018-04-08T14:58:34.780Z,6.17
2018-04-08T15:02:37.605Z,5.97
2018-04-08T15:06:40.539Z,5.93
2018-04-08T15:10:43.362Z,5.57
2018-04-08T15:14:47.130Z,5.60
2018-04-08T15:18:50.037Z,5.20
2018-04-08T15:22:52.859Z,5.87
2018-04-08T15:26:55.626Z,6.07
2018-04-08T15:30:58.363Z,4.70
2018-04-08T15:35:01.142Z,5.07
2018-04-08T15:39:04.147Z,5.43
2018-04-08T15:43:06.954Z,5.60
2018-04-08T15:47:09.736Z,5.77
2018-04-08T15:51:12.531Z,5.70
2018-04-08T15:55:15.267Z,5.40
2018-04-08T15:59:18.889Z,5.53
2018-04-08T16:03:23.463Z,5.30
2018-04-08T16:07:26.584Z,5.90
2018-04-08T16:11:29.344Z,5.60
2018-04-08T16:15:32.123Z,5.40
2018-04-08T16:19:35.717Z,5.57
2018-04-08T16:23:39.269Z,4.87
2018-04-08T16:27:42.136Z,4.40
2018-04-08T16:31:45.780Z,4.57
2018-04-08T16:35:48.519Z,4.73
2018-04-08T16:39:51.333Z,5.20
2018-04-08T16:43:54.099Z,4.47
2018-04-08T16:47:56.936Z,5.27
2018-04-08T16:51:59.721Z,5.00
2018-04-08T16:56:03.293Z,5.50
2018-04-08T17:00:06.070Z,5.37
2018-04-08T17:04:09.670Z,5.77
2018-04-08T17:08:13.268Z,5.17
2018-04-08T17:12:16.069Z,4.77
2018-04-08T17:16:18.827Z,5.50
2018-04-08T17:20:21.593Z,4.93
2018-04-08T17:24:25.209Z,5.00
2018-04-08T17:28:28.775Z,5.03
2018-04-08T17:32:31.718Z,5.37
2018-04-08T17:36:34.558Z,5.07
2018-04-08T17:40:37.409Z,5.03
2018-04-08T17:44:43.732Z,5.00
2018-04-08T17:48:47.647Z,5.00
2018-04-08T17:52:50.443Z,4.63
2018-04-08T17:56:53.583Z,4.10
2018-04-08T18:00:56.488Z,4.30
2018-04-08T18:04:59.346Z,3.97
2018-04-08T18:09:02.111Z,3.77
2018-04-08T18:13:05.084Z,4.13
2018-04-08T18:17:11.618Z,5.40
2018-04-08T18:21:15.451Z,4.17
2018-04-08T18:25:18.967Z,3.80
2018-04-08T18:29:22.673Z,4.40
2018-04-08T18:33:26.591Z,4.30
2018-04-08T18:37:30.273Z,4.37
2018-04-08T18:41:33.941Z,4.53
2018-04-08T18:45:36.985Z,4.77
2018-04-08T18:49:39.852Z,5.13
2018-04-08T18:53:42.932Z,5.53
2018-04-08T18:57:45.799Z,6.83
2018-04-08T19:01:48.580Z,8.10
2018-04-08T19:05:51.787Z,7.40
2018-04-08T19:09:54.773Z,8.87
2018-04-08T19:13:58.465Z,9.37
2018-04-08T19:18:03.082Z,7.80
2018-04-08T19:22:06.857Z,8.10
2018-04-08T19:26:10.530Z,7.33
2018-04-08T19:30:19.615Z,6.50
2018-04-08T19:34:22.654Z,6.73
2018-04-08T19:38:25.759Z,6.03
2018-04-08T19:42:28.493Z,6.23
2018-04-08T19:46:31.391Z,6.37
2018-04-08T19:50:34.423Z,5.83
2018-04-08T19:54:37.287Z,5.37
2018-04-08T19:58:41.387Z,6.20
2018-04-08T20:02:44.228Z,5.63
2018-04-08T20:06:47.310Z,5.70
2018-04-08T20:10:53.131Z,5.90
2018-04-08T20:14:57.461Z,5.30
2018-04-08T20:19:00.845Z,6.80
2018-04-08T20:23:05.697Z,5.10
2018-04-08T20:27:10.118Z,5.93
2018-04-08T20:31:15.415Z,5.30
2018-04-08T20:35:20.295Z,5.67
2018-04-08T20:39:26.039Z,6.00
2018-04-08T20:43:32.501Z,5.03
2018-04-08T20:47:37.561Z,4.93
2018-04-08T20:51:42.646Z,5.30
2018-04-08T20:55:46.253Z,3.97
2018-04-08T20:59:49.894Z,4.90
2018-04-08T21:03:52.614Z,4.30
2018-04-08T21:07:56.171Z,4.47
2018-04-08T21:11:59.831Z,4.33
2018-04-08T21:16:02.543Z,3.70
2018-04-08T21:20:05.306Z,3.90
2018-04-08T21:24:08.220Z,3.17
2018-04-08T21:28:10.953Z,3.27
2018-04-08T21:32:15.004Z,5.27
2018-04-08T21:36:18.609Z,4.07
2018-04-08T21:40:21.421Z,4.10
2018-04-08T21:44:25.004Z,4.10
2018-04-08T21:48:27.816Z,4.03
2018-04-08T21:52:30.548Z,3.60
2018-04-08T21:56:33.278Z,3.93
2018-04-08T22:00:36.045Z,4.40
2018-04-08T22:04:38.872Z,5.80
2018-04-08T22:08:41.626Z,3.80
2018-04-08T22:12:45.172Z,4.10
2018-04-08T22:16:47.905Z,4.43
2018-04-08T22:20:50.750Z,4.40
2018-04-08T22:24:53.489Z,4.10
2018-04-08T22:28:56.330Z,4.30
2018-04-08T22:32:59.924Z,3.80
2018-04-08T22:37:02.839Z,4.93
2018-04-08T22:41:06.427Z,4.10
2018-04-08T22:45:09.386Z,4.00
2018-04-08T22:49:12.125Z,3.60
2018-04-08T22:53:14.918Z,4.30
2018-04-08T22:57:17.672Z,3.80
2018-04-08T23:01:20.455Z,3.90
2018-04-08T23:05:23.956Z,5.33
2018-04-08T23:09:26.783Z,4.00
2018-04-08T23:13:29.530Z,3.70
2018-04-08T23:17:32.338Z,4.20
2018-04-08T23:21:35.277Z,5.53
2018-04-08T23:25:38.029Z,5.83
2018-04-08T23:29:41.877Z,5.23
2018-04-08T23:33:45.394Z,3.63
2018-04-08T23:37:51.091Z,4.50
2018-04-08T23:41:53.872Z,3.80
2018-04-08T23:45:56.686Z,4.10
2018-04-08T23:50:00.645Z,4.57
2018-04-08T23:54:03.415Z,4.70
2018-04-08T23:58:06.165Z,3.63
